メインページ
METAR-TAF:

METAR-TAF

空港 :

エセンボーア国際空港

アンカラ-エセンボーア, トルコ

緯度: 40-07N, 経度: 032-59E, 海抜: 953m

現時点の気象観測

当レポートは49分前の05:50(UTC)に作成
東/北東の風 2kt
気温 1°C
湿度 93%
気圧 1016 hPa
視程: 0400m
高度400ftの雲はほとんどない
高度4000ftの雲は散在している
高度10000ftの千切れ雲あり
散在霧

METAR: LTAC 150550Z 07002KT 1800 0400NE R03R/P1500N R21L/1000U R03L/P1500U R21R/0400U BCFG FEW004 SCT040 BKN100 01/00 Q1016 BECMG 6000

時間: 09:39 (06:39 UTC)

予報

当レポートは1時間59分前の04:40(UTC)に作成
予報は15日の 06時(UTC)から 16日の 06時(UTC)まで有効
変向風 2kt
視程10km以上
高度4000ftの雲は散在している
15日の 06時(UTC)から 15日の 07時(UTC)まで一時的に
視程: 2500m
15日の 22時(UTC)から 15日の 24時(UTC)まで徐々に
視程10km以上
1,500メートル以下は雲なし、積乱雲なし
16日の 02時(UTC)から 16日の 06時(UTC)まで一時的に
視程: 4000m

TAF: LTAC 150440Z 1506/1606 VRB02KT 9999 SCT040 TEMPO 1506/1507 2500 BR BECMG 1522/1524 CAVOK TEMPO 1602/1606 4000 BR

4,000以上の空港の気象観測と天気予報(METAR報とTAF報)

利用可能な観測所は地図上に黄色い丸と赤い丸で示す。

丸の上にカーソルを重ねると観測所名を参照できる。

次にクリックすると気象観測と天気予報を参照できる。

マップの切り替え:黒色「×」印の緑ボタンをクリックして拡大、「-」印の緑ボタンをクリックして縮小、緑色の三角印をクリックして隣りの地図に切り替え


METAR-TAF: